Terminal Aerodrome Forecast
Issued by NWS Quad Cities IA IL

Home | Current Version | Previous Version | Text Only | Print | Product List | Glossary On
Versions: 1 2 3 4 5 6 7 8 9 10 11 12 13 14 15 16 17 18 19 20 21 22
000
FTUS43 KDVN 292355
TAFDBQ
TAF
KDBQ 292355Z 3000/3024 22007KT P6SM FEW025 SCT040
      TEMPO 3000/3004 BKN025
     FM300400 21005KT 5SM BR VCSH BKN025 OVC050
     FM301200 02010G18KT 6SM BR VCSH OVC012
     FM301900 04013G24KT P6SM BKN025 OVC035=

USA.gov is the U.S. government's official web portal to all federal, state and local government web resources and services.